LIEO/OLB METAR and TAF weather

Enter ICAO airport designator
Station Type Date Time Source
LIEO METAR 2019/06/19 06:20 UTC NOAA

LIEO 190620Z VRB01KT CAVOK 23/15 Q1014


Station Type Date Time Source
LIEO Decoded METAR 2019/06/19 06:20 UTC NOAA

Olbia / Costa Smeralda, Italy (LIEO) 40-54N 009-31E 13M
Jun 19, 2019 - 02:20 AM EDT / 2019.06.19 0620 UTC
Wind: Variable at 1 MPH (1 KT):0
Visibility: greater than 7 mile(s):0
Temperature: 73 F (23 C)
Dew Point: 59 F (15 C)
Relative Humidity: 60%
Pressure (altimeter): 29.94 in. Hg (1014 hPa)
ob: LIEO 190620Z VRB01KT CAVOK 23/15 Q1014
cycle: 6

Station Type Date Time Source
LIEO TAF 2019/06/19 06:21 UTC NOAA

TAF LIEO 190500Z 1906/2006 VRB05KT CAVOK
BECMG 1908/1910 06012KT
BECMG 1916/1918 VRB05KT

Example: see airport list